Time;durP1;ratioP1;P1;durP2;ratioP2;P2;SDS_P1;SDS_P2;PMS_P1;PMS_P2;Temp;Humidity;BMP_temperature;BMP_pressure;BME280_temperature;BME280_humidity;BME280_pressure;Samples;Min_cycle;Max_cycle;Signal;HPM_P1;HPM_P2
2023/05/02 00:01:03;;;;;;;17.20;7.57;;;11.30;99.90;;;;;;5111963;28;20035;-68
2023/05/02 00:03:30;;;;;;;14.93;6.25;;;11.30;99.90;;;;;;5095262;28;20118;-68
2023/05/02 00:05:55;;;;;;;16.83;6.60;;;11.20;99.90;;;;;;5106926;28;20043;-68
2023/05/02 00:08:21;;;;;;;14.57;7.35;;;11.20;99.90;;;;;;5111881;28;20097;-68
2023/05/02 00:10:47;;;;;;;15.00;6.13;;;11.10;99.90;;;;;;5112023;28;20043;-68
2023/05/02 00:13:13;;;;;;;12.70;5.97;;;11.10;99.90;;;;;;5080076;28;20044;-67
2023/05/02 00:15:39;;;;;;;13.10;6.60;;;11.20;99.90;;;;;;5091296;28;20043;-68
2023/05/02 00:18:04;;;;;;;11.60;4.40;;;11.10;99.90;;;;;;5074860;28;20036;-68
2023/05/02 00:20:30;;;;;;;11.05;5.20;;;11.10;99.90;;;;;;5074921;28;20039;-68
2023/05/02 00:22:56;;;;;;;9.77;3.60;;;11.10;99.90;;;;;;5101921;28;20517;-68
2023/05/02 00:25:22;;;;;;;7.43;3.60;;;11.00;99.90;;;;;;5094755;28;20032;-68
2023/05/02 00:27:49;;;;;;;5.65;2.55;;;11.10;99.90;;;;;;5100570;28;20044;-68
2023/05/02 00:30:16;;;;;;;7.50;3.00;;;11.00;99.90;;;;;;5092582;28;20051;-69
2023/05/02 00:32:41;;;;;;;8.48;3.00;;;10.90;99.90;;;;;;5103845;28;20475;-69
2023/05/02 00:35:07;;;;;;;7.25;2.80;;;10.90;99.90;;;;;;5100377;28;20081;-69
2023/05/02 00:37:33;;;;;;;8.13;3.33;;;10.90;99.90;;;;;;5085223;28;20047;-69
2023/05/02 00:39:58;;;;;;;9.13;2.80;;;10.80;99.90;;;;;;5098612;28;20081;-68
2023/05/02 00:42:24;;;;;;;10.25;3.10;;;10.80;99.90;;;;;;5107444;28;20032;-69
2023/05/02 00:44:50;;;;;;;11.48;3.58;;;10.70;99.90;;;;;;5094760;28;20032;-68
2023/05/02 00:47:15;;;;;;;8.95;3.50;;;10.70;99.90;;;;;;5095043;28;20036;-68
2023/05/02 00:49:41;;;;;;;10.10;3.08;;;10.70;99.90;;;;;;5094739;28;20040;-69
2023/05/02 00:52:07;;;;;;;10.45;3.40;;;10.70;99.90;;;;;;5094215;28;20408;-69
2023/05/02 00:54:33;;;;;;;8.98;3.42;;;10.70;99.90;;;;;;5094599;28;20036;-69
2023/05/02 00:56:58;;;;;;;8.45;3.33;;;10.70;99.90;;;;;;5094367;28;20514;-69
2023/05/02 00:59:25;;;;;;;8.50;3.00;;;10.80;99.90;;;;;;5094504;28;20042;-69
2023/05/02 01:02:18;;;;;;;6.75;2.50;;;10.70;99.90;;;;;;5094175;28;20084;-69
2023/05/02 01:05:00;;;;;;;7.97;3.03;;;10.90;99.90;;;;;;5095146;28;20068;-69
2023/05/02 01:07:25;;;;;;;6.43;2.75;;;10.80;99.90;;;;;;5077448;28;20028;-68
2023/05/02 01:10:32;;;;;;;8.98;2.95;;;10.90;99.90;;;;;;5094616;28;20483;-69
2023/05/02 01:13:18;;;;;;;9.45;3.13;;;10.90;99.90;;;;;;5038126;28;20080;-69
2023/05/02 01:15:46;;;;;;;9.18;2.90;;;10.90;99.90;;;;;;5094146;28;20044;-69
2023/05/02 01:18:13;;;;;;;7.22;2.80;;;10.80;99.90;;;;;;5102024;28;20032;-69
2023/05/02 01:20:43;;;;;;;5.78;2.80;;;10.90;99.90;;;;;;5102199;28;20024;-69
2023/05/02 01:23:31;;;;;;;8.88;3.70;;;10.80;99.90;;;;;;5083247;27;20028;-69
2023/05/02 01:26:24;;;;;;;10.15;2.97;;;10.80;99.90;;;;;;5112162;27;20495;-69
2023/05/02 01:29:07;;;;;;;8.25;3.03;;;10.80;99.90;;;;;;5089273;28;20395;-69
2023/05/02 01:31:41;;;;;;;6.75;2.38;;;10.90;99.90;;;;;;5105099;28;20081;-69
2023/05/02 01:34:11;;;;;;;6.45;2.60;;;10.90;99.90;;;;;;5100066;28;20492;-69
2023/05/02 01:36:42;;;;;;;9.18;2.97;;;10.90;99.90;;;;;;5114422;28;20508;-69
2023/05/02 01:39:09;;;;;;;7.57;3.72;;;10.90;99.90;;;;;;5112701;28;20071;-69
2023/05/02 01:41:36;;;;;;;7.72;3.15;;;10.90;99.90;;;;;;5113410;28;20060;-68
2023/05/02 01:44:03;;;;;;;8.00;2.70;;;10.90;99.90;;;;;;5114137;28;20078;-69
2023/05/02 01:46:33;;;;;;;7.00;2.60;;;10.90;99.90;;;;;;5111835;28;20035;-68
2023/05/02 01:49:01;;;;;;;7.57;2.67;;;10.90;99.90;;;;;;5097063;28;20043;-69
2023/05/02 01:51:30;;;;;;;6.18;2.40;;;10.90;99.90;;;;;;5111536;27;20089;-69
2023/05/02 01:54:00;;;;;;;8.20;2.83;;;10.90;99.90;;;;;;5113909;28;20563;-69
2023/05/02 01:56:27;;;;;;;8.95;3.05;;;10.90;99.90;;;;;;5088209;28;20460;-70
2023/05/02 01:58:55;;;;;;;9.10;2.60;;;10.90;99.90;;;;;;5107242;28;20048;-69
2023/05/02 02:01:24;;;;;;;6.75;2.70;;;10.80;99.90;;;;;;5097268;28;20046;-69
2023/05/02 02:03:51;;;;;;;11.07;3.30;;;10.80;99.90;;;;;;5092080;28;20050;-69
2023/05/02 02:06:17;;;;;;;8.75;2.97;;;10.80;99.90;;;;;;5094144;28;20555;-69
2023/05/02 02:08:43;;;;;;;7.65;2.97;;;10.70;99.90;;;;;;5112220;28;20043;-69
2023/05/02 02:11:11;;;;;;;13.95;2.97;;;10.60;99.90;;;;;;5077197;28;20105;-69
2023/05/02 02:13:43;;;;;;;10.93;2.60;;;10.60;99.90;;;;;;5107125;28;20104;-68
2023/05/02 02:16:12;;;;;;;11.32;2.95;;;10.40;99.90;;;;;;5093956;28;20036;-69
2023/05/02 02:18:38;;;;;;;9.25;2.72;;;10.30;99.90;;;;;;5100914;28;20047;-69
2023/05/02 02:21:10;;;;;;;12.90;3.22;;;10.20;99.90;;;;;;5107225;28;20036;-69
2023/05/02 02:23:38;;;;;;;16.42;3.80;;;10.00;99.90;;;;;;5104429;28;20134;-69
2023/05/02 02:26:06;;;;;;;12.32;3.55;;;10.00;99.90;;;;;;5101785;28;20036;-69
2023/05/02 02:28:33;;;;;;;14.77;3.08;;;10.00;99.90;;;;;;5096408;28;20430;-69
2023/05/02 02:30:59;;;;;;;15.73;3.65;;;9.90;99.90;;;;;;5091943;28;20193;-68
2023/05/02 02:33:29;;;;;;;15.07;4.40;;;9.90;99.90;;;;;;5108139;28;20050;-69
2023/05/02 02:36:07;;;;;;;15.80;3.35;;;9.90;99.90;;;;;;5105390;28;20084;-69
2023/05/02 02:38:59;;;;;;;15.95;3.55;;;9.80;99.90;;;;;;5110012;28;20503;-69
2023/05/02 02:41:38;;;;;;;15.63;3.53;;;9.70;99.90;;;;;;5079332;28;20485;-69
2023/05/02 02:44:18;;;;;;;13.38;3.53;;;9.60;99.90;;;;;;5117765;27;20039;-69
2023/05/02 02:46:59;;;;;;;14.20;3.25;;;9.60;99.90;;;;;;5094819;28;20047;-69
2023/05/02 02:49:46;;;;;;;15.48;3.72;;;9.60;99.90;;;;;;5113333;27;20072;-69
2023/05/02 02:52:23;;;;;;;15.77;4.10;;;9.40;99.90;;;;;;5087602;28;20108;-69
2023/05/02 02:54:59;;;;;;;19.33;4.22;;;9.40;99.90;;;;;;5106542;28;20531;-69
2023/05/02 02:57:43;;;;;;;19.52;4.38;;;9.40;99.90;;;;;;5103138;28;20503;-69
2023/05/02 03:00:19;;;;;;;21.70;4.22;;;9.40;99.90;;;;;;5085635;28;20456;-69
2023/05/02 03:02:47;;;;;;;18.55;4.55;;;9.20;99.90;;;;;;5109654;28;20040;-69
2023/05/02 03:05:13;;;;;;;21.75;4.50;;;9.10;99.90;;;;;;5093412;28;20044;-69
2023/05/02 03:07:39;;;;;;;17.60;3.90;;;8.90;99.90;;;;;;5093478;27;20442;-69
2023/05/02 03:10:06;;;;;;;17.63;4.65;;;8.90;99.90;;;;;;5106832;28;20051;-69
2023/05/02 03:12:31;;;;;;;19.13;3.92;;;8.90;99.90;;;;;;5079310;28;20054;-68
2023/05/02 03:15:25;;;;;;;18.73;4.40;;;8.90;99.90;;;;;;5103142;28;20035;-69
2023/05/02 03:17:50;;;;;;;16.88;3.95;;;8.80;99.90;;;;;;5090252;28;20514;-68
2023/05/02 03:20:16;;;;;;;16.27;3.70;;;8.80;99.90;;;;;;5083433;28;20072;-69
2023/05/02 03:22:41;;;;;;;20.60;5.13;;;8.90;99.90;;;;;;5106857;28;20040;-69
2023/05/02 03:25:07;;;;;;;17.35;4.00;;;8.70;99.90;;;;;;5084979;28;20074;-69
2023/05/02 03:27:33;;;;;;;19.75;4.40;;;8.70;99.90;;;;;;5098589;28;20028;-68
2023/05/02 03:29:59;;;;;;;14.93;4.03;;;8.80;99.90;;;;;;5106031;28;20036;-68
2023/05/02 03:32:25;;;;;;;19.23;4.00;;;8.70;99.90;;;;;;5109853;28;20088;-69
2023/05/02 03:34:51;;;;;;;16.85;4.40;;;8.60;99.90;;;;;;5108742;28;20035;-68
2023/05/02 03:37:16;;;;;;;17.73;4.00;;;8.60;99.90;;;;;;5091452;28;20039;-69
2023/05/02 03:39:43;;;;;;;17.38;3.83;;;8.50;99.90;;;;;;5100774;28;20078;-69
2023/05/02 03:42:09;;;;;;;16.15;3.65;;;8.50;99.90;;;;;;5111349;28;20028;-69
2023/05/02 03:44:34;;;;;;;15.85;3.15;;;8.60;99.90;;;;;;5108790;28;20031;-69
2023/05/02 03:47:00;;;;;;;13.63;2.85;;;8.60;99.90;;;;;;5111188;28;20047;-68
2023/05/02 03:49:26;;;;;;;13.82;3.00;;;8.50;99.90;;;;;;5093790;28;20047;-69
2023/05/02 03:51:51;;;;;;;11.50;2.92;;;8.40;99.90;;;;;;5090456;28;20042;-69
2023/05/02 03:54:17;;;;;;;16.60;3.22;;;8.50;99.90;;;;;;5109401;28;20039;-69
2023/05/02 03:56:43;;;;;;;14.48;3.55;;;8.50;99.90;;;;;;5090003;28;20047;-68
2023/05/02 03:59:08;;;;;;;13.93;2.88;;;8.50;99.90;;;;;;5096741;28;20090;-69
2023/05/02 04:01:34;;;;;;;10.77;2.65;;;8.40;99.90;;;;;;5098270;28;20467;-69
2023/05/02 04:04:00;;;;;;;12.52;3.30;;;8.20;99.90;;;;;;5098643;28;20089;-69
2023/05/02 04:06:25;;;;;;;12.65;2.97;;;8.40;99.90;;;;;;5094859;28;20040;-68
2023/05/02 04:08:51;;;;;;;12.18;2.20;;;8.30;99.90;;;;;;5102479;27;20081;-68
2023/05/02 04:11:16;;;;;;;12.48;2.90;;;8.40;99.90;;;;;;5112557;28;20089;-68
2023/05/02 04:13:42;;;;;;;9.40;2.00;;;8.30;99.90;;;;;;5112203;27;20031;-68
2023/05/02 04:16:08;;;;;;;12.27;3.08;;;8.30;99.90;;;;;;5112829;28;20044;-69
2023/05/02 04:18:34;;;;;;;11.63;2.50;;;8.30;99.90;;;;;;5103354;28;20421;-68
2023/05/02 04:20:59;;;;;;;12.32;3.30;;;8.20;99.90;;;;;;5115754;28;20053;-68
2023/05/02 04:23:25;;;;;;;13.25;2.90;;;8.20;99.90;;;;;;5091558;28;20480;-68
2023/05/02 04:25:52;;;;;;;11.95;2.58;;;8.30;99.90;;;;;;5101774;28;20043;-68
2023/05/02 04:28:20;;;;;;;11.65;2.53;;;8.20;99.90;;;;;;5106239;28;20399;-69
2023/05/02 04:30:47;;;;;;;7.35;1.92;;;8.20;99.90;;;;;;5106120;28;20035;-68
2023/05/02 04:33:12;;;;;;;11.45;1.83;;;8.10;99.90;;;;;;5111091;28;20053;-69
2023/05/02 04:35:41;;;;;;;10.10;2.40;;;8.10;99.90;;;;;;5113600;28;20043;-68
2023/05/02 04:38:07;;;;;;;8.15;2.10;;;8.10;99.90;;;;;;5097292;28;20487;-69
2023/05/02 04:40:33;;;;;;;7.82;1.88;;;8.10;99.90;;;;;;5113741;28;20040;-68
2023/05/02 04:42:59;;;;;;;10.80;2.20;;;8.10;99.90;;;;;;5095700;28;20040;-68
2023/05/02 04:45:25;;;;;;;6.95;2.25;;;8.10;99.90;;;;;;5102154;28;20466;-68
2023/05/02 04:47:51;;;;;;;10.43;2.25;;;8.10;99.90;;;;;;5105293;28;20040;-68
2023/05/02 04:50:17;;;;;;;11.77;2.20;;;8.10;99.90;;;;;;5102789;28;20042;-68
2023/05/02 04:52:42;;;;;;;7.72;2.22;;;8.10;99.90;;;;;;5093193;28;20130;-68
2023/05/02 04:55:08;;;;;;;6.65;1.92;;;8.10;99.90;;;;;;5094894;28;20039;-68
2023/05/02 04:57:34;;;;;;;9.73;1.95;;;8.10;99.90;;;;;;5100027;28;20981;-68
2023/05/02 04:59:59;;;;;;;11.63;2.30;;;8.10;99.90;;;;;;5114218;28;20462;-68
2023/05/02 05:02:25;;;;;;;8.98;2.30;;;8.10;99.90;;;;;;5086170;28;20484;-68
2023/05/02 05:04:51;;;;;;;8.48;1.90;;;8.00;99.90;;;;;;5108602;28;20031;-68
2023/05/02 05:07:17;;;;;;;7.40;2.20;;;8.10;99.90;;;;;;5107070;28;20067;-68
2023/05/02 05:09:42;;;;;;;10.85;1.95;;;8.10;99.90;;;;;;5130746;27;20036;-68
2023/05/02 05:12:08;;;;;;;8.45;1.95;;;8.10;99.90;;;;;;5113705;28;20039;-68
2023/05/02 05:14:33;;;;;;;9.68;2.38;;;8.10;99.90;;;;;;5103232;27;20043;-68
2023/05/02 05:16:59;;;;;;;9.00;2.10;;;8.00;99.90;;;;;;5076692;28;20040;-68
2023/05/02 05:19:25;;;;;;;12.93;2.05;;;8.00;99.90;;;;;;5096949;28;20093;-68
2023/05/02 05:21:51;;;;;;;10.20;2.15;;;8.10;99.90;;;;;;5083917;28;20032;-68
2023/05/02 05:24:16;;;;;;;8.30;2.03;;;8.00;99.90;;;;;;5106219;28;20539;-68
2023/05/02 05:26:42;;;;;;;8.52;1.85;;;8.00;99.90;;;;;;5111618;28;20186;-68
2023/05/02 05:29:08;;;;;;;12.65;3.05;;;8.10;99.90;;;;;;5094130;28;20111;-68
2023/05/02 05:31:33;;;;;;;12.00;2.45;;;8.00;99.90;;;;;;5111790;28;20062;-68
2023/05/02 05:34:00;;;;;;;6.97;2.25;;;8.00;99.90;;;;;;5105427;28;20502;-68
2023/05/02 05:36:26;;;;;;;9.40;2.20;;;8.10;99.90;;;;;;5081591;28;20055;-68
2023/05/02 05:38:52;;;;;;;9.43;2.13;;;8.10;99.90;;;;;;5104391;28;20365;-68
2023/05/02 05:41:18;;;;;;;9.18;2.15;;;8.10;99.90;;;;;;5086346;28;20043;-68
2023/05/02 05:43:43;;;;;;;10.07;2.17;;;8.20;99.90;;;;;;5109010;28;20040;-69
2023/05/02 05:46:09;;;;;;;11.98;2.42;;;8.10;99.90;;;;;;5080647;28;20048;-69
2023/05/02 05:48:34;;;;;;;10.35;2.80;;;8.00;99.90;;;;;;5092551;28;20050;-68
2023/05/02 05:51:04;;;;;;;9.38;2.28;;;8.00;99.90;;;;;;5104152;28;20043;-69
2023/05/02 05:53:30;;;;;;;11.35;2.42;;;8.10;99.90;;;;;;5075328;28;20081;-69
2023/05/02 05:55:56;;;;;;;9.80;2.15;;;8.10;99.90;;;;;;5102693;28;20039;-68
2023/05/02 05:58:22;;;;;;;8.93;2.28;;;8.10;99.90;;;;;;5079733;28;20127;-69
2023/05/02 06:00:48;;;;;;;14.13;2.55;;;8.20;99.90;;;;;;5088087;28;20152;-68
2023/05/02 06:03:13;;;;;;;11.45;2.67;;;8.20;99.90;;;;;;5101342;28;20122;-68
2023/05/02 06:05:39;;;;;;;13.25;2.90;;;8.20;99.90;;;;;;5108699;28;20492;-68
2023/05/02 06:08:05;;;;;;;10.07;2.67;;;8.10;99.90;;;;;;5113859;28;20104;-68
2023/05/02 06:10:31;;;;;;;14.10;2.85;;;8.20;99.90;;;;;;5113610;28;20514;-68
2023/05/02 06:12:57;;;;;;;13.57;2.60;;;8.20;99.90;;;;;;5095818;28;20372;-69
2023/05/02 06:15:22;;;;;;;13.68;2.67;;;8.10;99.90;;;;;;5096359;28;20100;-68
2023/05/02 06:17:50;;;;;;;12.63;3.10;;;8.20;99.90;;;;;;5112611;28;20404;-68
2023/05/02 06:20:16;;;;;;;12.70;2.90;;;8.20;99.90;;;;;;5112525;28;20047;-68
2023/05/02 06:22:41;;;;;;;10.63;2.45;;;8.20;99.90;;;;;;5110418;28;20028;-79
2023/05/02 06:25:07;;;;;;;10.57;2.38;;;8.40;99.90;;;;;;5111296;28;20063;-68
2023/05/02 06:27:33;;;;;;;11.25;2.88;;;8.40;99.90;;;;;;5113064;28;20047;-68
2023/05/02 06:29:59;;;;;;;12.98;3.08;;;8.40;99.90;;;;;;5093631;28;20036;-68
2023/05/02 06:32:28;;;;;;;8.38;2.30;;;8.50;99.90;;;;;;5113106;28;20036;-68
2023/05/02 06:34:54;;;;;;;14.27;3.47;;;8.50;99.90;;;;;;5096151;28;20042;-68
2023/05/02 06:37:19;;;;;;;11.40;2.70;;;8.40;99.90;;;;;;5111950;28;20027;-68
2023/05/02 06:39:45;;;;;;;11.88;2.95;;;8.40;99.90;;;;;;5101465;28;20032;-69
2023/05/02 06:42:10;;;;;;;10.75;2.97;;;8.30;99.90;;;;;;5112953;28;20118;-69
2023/05/02 06:44:36;;;;;;;12.70;2.75;;;8.40;99.90;;;;;;5113174;28;20038;-68
2023/05/02 06:47:03;;;;;;;12.40;2.90;;;8.40;99.90;;;;;;5094995;28;20035;-68
2023/05/02 06:49:29;;;;;;;11.70;3.15;;;8.40;99.90;;;;;;5113037;28;20419;-69
2023/05/02 06:51:54;;;;;;;12.07;2.95;;;8.50;99.90;;;;;;5076948;28;20044;-68
2023/05/02 06:54:20;;;;;;;9.57;2.60;;;8.30;99.90;;;;;;5092455;28;20511;-69
2023/05/02 06:56:46;;;;;;;13.27;2.92;;;8.30;99.90;;;;;;5091980;28;20492;-68
2023/05/02 06:59:12;;;;;;;9.55;2.70;;;8.40;99.90;;;;;;5096584;28;20032;-68
2023/05/02 07:01:37;;;;;;;11.32;3.15;;;8.40;99.90;;;;;;5105364;28;20072;-69
2023/05/02 07:04:04;;;;;;;9.40;2.30;;;8.30;99.90;;;;;;5094349;28;20123;-68
2023/05/02 07:06:31;;;;;;;13.13;3.00;;;8.30;99.90;;;;;;5112610;28;20071;-68
2023/05/02 07:08:56;;;;;;;12.40;2.60;;;8.40;99.90;;;;;;5087127;28;20532;-68
2023/05/02 07:11:22;;;;;;;12.45;2.75;;;8.40;99.90;;;;;;5095767;28;20276;-68
2023/05/02 07:13:48;;;;;;;10.20;3.08;;;8.40;99.90;;;;;;5112823;28;20039;-68
2023/05/02 07:16:14;;;;;;;12.82;3.05;;;8.50;99.90;;;;;;5112502;28;20509;-68
2023/05/02 07:18:41;;;;;;;9.45;3.17;;;8.60;99.90;;;;;;5112269;28;20042;-68
2023/05/02 07:21:07;;;;;;;10.90;2.90;;;8.60;99.90;;;;;;5095749;28;20040;-68
2023/05/02 07:23:33;;;;;;;7.53;2.33;;;8.50;99.90;;;;;;5092336;28;20407;-68
2023/05/02 07:25:59;;;;;;;8.13;2.10;;;8.50;99.90;;;;;;5109844;28;20043;-68
2023/05/02 07:28:24;;;;;;;10.98;2.50;;;8.60;99.90;;;;;;5095353;28;20039;-68
2023/05/02 07:30:50;;;;;;;11.07;2.80;;;8.60;99.90;;;;;;5112281;28;20035;-68
2023/05/02 07:33:16;;;;;;;13.70;2.75;;;8.70;99.90;;;;;;5095245;28;20089;-68
2023/05/02 07:35:41;;;;;;;14.32;2.53;;;8.70;99.90;;;;;;5112214;28;20038;-68
2023/05/02 07:38:07;;;;;;;9.70;2.70;;;8.70;99.90;;;;;;5095235;28;20039;-68
2023/05/02 07:40:32;;;;;;;9.32;2.25;;;8.70;99.90;;;;;;5114305;28;20050;-68
2023/05/02 07:43:00;;;;;;;7.75;2.53;;;8.60;99.90;;;;;;5099460;28;20137;-68
2023/05/02 07:45:26;;;;;;;10.88;2.70;;;8.60;99.90;;;;;;5099380;28;20518;-68
2023/05/02 07:47:51;;;;;;;11.95;2.78;;;8.60;99.90;;;;;;5099693;28;20031;-68
2023/05/02 07:50:17;;;;;;;11.00;2.75;;;8.60;99.90;;;;;;5116538;28;20092;-68
2023/05/02 07:52:42;;;;;;;9.43;2.45;;;8.70;99.90;;;;;;5116304;28;20180;-68
2023/05/02 07:55:08;;;;;;;9.35;2.75;;;8.70;99.90;;;;;;5098079;28;20043;-68
2023/05/02 07:57:34;;;;;;;9.82;2.70;;;8.70;99.90;;;;;;5116214;28;20074;-69
2023/05/02 07:59:59;;;;;;;8.68;2.92;;;8.80;99.90;;;;;;5116134;28;20492;-68
2023/05/02 08:02:26;;;;;;;11.43;2.55;;;8.80;99.90;;;;;;5098974;28;20524;-68
2023/05/02 08:04:51;;;;;;;9.98;2.50;;;8.80;99.90;;;;;;5110772;28;20036;-68
2023/05/02 08:07:17;;;;;;;7.60;2.85;;;8.80;99.90;;;;;;5114931;28;20126;-69
2023/05/02 08:09:43;;;;;;;10.65;2.50;;;8.90;99.90;;;;;;5115988;28;20491;-68
2023/05/02 08:12:08;;;;;;;10.40;2.50;;;8.90;99.90;;;;;;5099082;28;20184;-68
2023/05/02 08:14:34;;;;;;;10.10;2.50;;;8.90;99.90;;;;;;5116126;28;20047;-68
2023/05/02 08:16:59;;;;;;;10.30;3.03;;;8.90;99.90;;;;;;5115768;28;20050;-68
2023/05/02 08:19:26;;;;;;;8.50;2.63;;;8.90;99.90;;;;;;5098674;28;20043;-69
2023/05/02 08:21:53;;;;;;;8.15;2.50;;;9.00;99.90;;;;;;5115805;28;20035;-68
2023/05/02 08:24:18;;;;;;;7.78;2.40;;;9.10;99.90;;;;;;5115968;28;20089;-68
2023/05/02 08:26:44;;;;;;;8.70;2.90;;;9.10;99.90;;;;;;5116031;28;20492;-69
2023/05/02 08:29:10;;;;;;;10.23;2.70;;;9.20;99.90;;;;;;5115593;28;20046;-68
2023/05/02 08:31:36;;;;;;;8.93;2.40;;;9.20;99.90;;;;;;5098508;28;20080;-68
2023/05/02 08:34:02;;;;;;;7.57;2.58;;;9.20;99.90;;;;;;5098529;28;20119;-68
2023/05/02 08:36:28;;;;;;;12.75;3.40;;;9.20;99.90;;;;;;5132570;27;20463;-68
2023/05/02 08:38:53;;;;;;;9.55;2.50;;;9.30;99.90;;;;;;5081673;28;20058;-68
2023/05/02 08:41:19;;;;;;;6.50;2.13;;;9.40;99.90;;;;;;5095010;28;20119;-68
2023/05/02 08:43:45;;;;;;;9.00;2.10;;;9.40;99.90;;;;;;5095250;28;20169;-68
2023/05/02 08:46:12;;;;;;;10.05;2.30;;;9.40;99.90;;;;;;5078025;28;20036;-68
2023/05/02 08:48:43;;;;;;;10.73;2.20;;;9.30;99.90;;;;;;5078187;28;20047;-69
2023/05/02 08:51:12;;;;;;;8.40;2.00;;;9.30;99.90;;;;;;5094926;28;20471;-68
2023/05/02 08:53:39;;;;;;;11.25;2.13;;;9.30;99.90;;;;;;5111757;28;20206;-68
2023/05/02 08:56:09;;;;;;;6.78;2.05;;;9.30;99.90;;;;;;5094672;28;20538;-68
2023/05/02 08:58:36;;;;;;;9.95;2.10;;;9.30;99.90;;;;;;5094519;28;20488;-68
2023/05/02 09:01:08;;;;;;;8.63;1.95;;;9.30;99.90;;;;;;5094611;28;20070;-68
2023/05/02 09:03:34;;;;;;;6.53;1.63;;;9.30;99.90;;;;;;5094868;28;20443;-68
2023/05/02 09:06:19;;;;;;;6.30;1.75;;;9.30;99.90;;;;;;5094848;28;20040;-68
2023/05/02 09:08:51;;;;;;;5.32;1.85;;;9.40;99.90;;;;;;5104915;28;20071;-68
2023/05/02 09:11:17;;;;;;;8.70;2.10;;;9.50;99.90;;;;;;5095784;28;20043;-69
2023/05/02 09:13:43;;;;;;;8.43;2.05;;;9.60;99.90;;;;;;5112195;28;20096;-68
2023/05/02 09:16:14;;;;;;;6.15;1.65;;;9.70;99.90;;;;;;5112305;28;20044;-69
2023/05/02 09:18:54;;;;;;;3.75;1.40;;;9.80;99.90;;;;;;5094158;28;20119;-68
2023/05/02 09:21:39;;;;;;;6.18;1.60;;;10.10;99.90;;;;;;5083051;28;20407;-69
2023/05/02 09:24:34;;;;;;;5.13;1.50;;;10.10;99.90;;;;;;5084149;28;20032;-69
2023/05/02 09:27:02;;;;;;;3.50;1.27;;;10.30;99.90;;;;;;5085472;28;20144;-69
2023/05/02 09:29:34;;;;;;;4.30;1.40;;;10.30;99.90;;;;;;5093923;28;20044;-69
2023/05/02 09:32:04;;;;;;;7.70;1.50;;;10.20;99.90;;;;;;5111245;28;20044;-69
2023/05/02 09:34:30;;;;;;;6.43;1.40;;;10.30;99.90;;;;;;5110889;28;20036;-68
2023/05/02 09:36:57;;;;;;;7.90;2.15;;;10.20;99.90;;;;;;5106005;27;20544;-69
2023/05/02 09:39:29;;;;;;;4.05;0.95;;;10.40;99.90;;;;;;5099411;28;20109;-69
2023/05/02 09:41:56;;;;;;;4.72;1.23;;;10.50;99.00;;;;;;5104328;28;20070;-69
2023/05/02 09:44:24;;;;;;;3.95;1.10;;;10.60;98.30;;;;;;5112024;28;20065;-69
2023/05/02 09:46:52;;;;;;;3.97;1.48;;;10.60;99.90;;;;;;5113129;28;20499;-69
2023/05/02 09:49:18;;;;;;;4.43;1.23;;;10.40;99.90;;;;;;5090870;27;20042;-68
2023/05/02 09:51:46;;;;;;;5.13;1.45;;;10.40;99.90;;;;;;5098027;28;20046;-68
2023/05/02 09:54:12;;;;;;;5.18;1.40;;;10.30;99.90;;;;;;5094190;28;20044;-68
2023/05/02 09:56:55;;;;;;;6.35;1.40;;;10.30;99.90;;;;;;5093302;28;20079;-69
2023/05/02 09:59:22;;;;;;;6.35;1.70;;;10.20;99.90;;;;;;5101053;28;20427;-68
2023/05/02 10:01:56;;;;;;;4.28;1.17;;;10.30;99.90;;;;;;5109922;28;20536;-68
2023/05/02 10:04:21;;;;;;;5.95;1.45;;;10.30;99.90;;;;;;5075322;28;20036;-68
2023/05/02 10:06:50;;;;;;;4.93;1.30;;;10.40;99.90;;;;;;5094494;28;20036;-68
2023/05/02 10:09:21;;;;;;;6.50;1.20;;;10.40;99.90;;;;;;5100289;28;20435;-68
2023/05/02 10:11:52;;;;;;;3.67;1.30;;;10.50;99.90;;;;;;5109752;28;20039;-68
2023/05/02 10:14:21;;;;;;;6.43;1.40;;;10.30;99.90;;;;;;5092440;28;20117;-68
2023/05/02 10:17:08;;;;;;;5.40;1.30;;;10.40;99.90;;;;;;5083121;28;20116;-68
2023/05/02 10:19:56;;;;;;;3.15;1.10;;;10.50;99.90;;;;;;5096478;28;20433;-69
2023/05/02 10:22:22;;;;;;;2.42;1.08;;;10.50;99.90;;;;;;5104931;28;20232;-69
2023/05/02 10:24:49;;;;;;;5.57;1.27;;;10.50;99.90;;;;;;5096215;28;20495;-68
2023/05/02 10:27:15;;;;;;;5.05;1.27;;;10.60;99.90;;;;;;5099371;27;20495;-68
2023/05/02 10:29:41;;;;;;;7.55;1.50;;;10.60;99.90;;;;;;5096637;28;20066;-68
2023/05/02 10:32:08;;;;;;;5.63;1.20;;;10.40;99.90;;;;;;5113777;27;20460;-68
2023/05/02 10:34:34;;;;;;;3.78;1.08;;;10.60;99.90;;;;;;5105955;27;20492;-68
2023/05/02 10:37:00;;;;;;;8.15;1.58;;;10.90;99.90;;;;;;5086763;28;20509;-68
2023/05/02 10:39:27;;;;;;;4.57;1.20;;;10.90;99.90;;;;;;5117512;27;20534;-68
2023/05/02 10:41:56;;;;;;;5.18;1.42;;;11.00;99.90;;;;;;5103819;27;20134;-68
2023/05/02 10:44:38;;;;;;;7.45;1.58;;;10.90;99.90;;;;;;5091849;28;20036;-69
2023/05/02 10:47:23;;;;;;;6.45;1.23;;;10.80;99.90;;;;;;5111398;28;20039;-68
2023/05/02 10:49:53;;;;;;;3.05;1.02;;;10.80;99.90;;;;;;5109518;28;20163;-68
2023/05/02 10:52:27;;;;;;;4.78;1.13;;;10.70;99.90;;;;;;5075397;28;20040;-68
2023/05/02 10:55:18;;;;;;;2.78;0.75;;;10.80;99.90;;;;;;5116575;27;20126;-68
2023/05/02 10:57:56;;;;;;;5.45;1.20;;;10.80;99.90;;;;;;5090060;27;20545;-68
2023/05/02 11:00:26;;;;;;;4.65;1.02;;;10.80;99.90;;;;;;5092564;28;20039;-68
2023/05/02 11:02:52;;;;;;;4.75;1.15;;;10.80;99.90;;;;;;5109852;28;20036;-69
2023/05/02 11:05:18;;;;;;;3.13;1.00;;;10.90;99.90;;;;;;5102019;28;20027;-68
2023/05/02 11:07:43;;;;;;;3.97;1.35;;;10.90;99.90;;;;;;5094118;28;20067;-68
2023/05/02 11:10:21;;;;;;;3.88;1.15;;;10.90;99.90;;;;;;5102397;28;20024;-68
2023/05/02 11:12:53;;;;;;;2.25;1.13;;;11.00;99.90;;;;;;5100431;28;20062;-68
2023/05/02 11:15:25;;;;;;;4.70;1.10;;;11.00;99.90;;;;;;5126311;27;20112;-68
2023/05/02 11:18:07;;;;;;;6.35;1.17;;;11.00;99.90;;;;;;5095064;28;20039;-68
2023/05/02 11:20:35;;;;;;;5.13;1.23;;;11.00;99.90;;;;;;5110449;28;20032;-68
2023/05/02 11:23:20;;;;;;;5.18;1.35;;;11.00;99.90;;;;;;5093602;28;20075;-68
2023/05/02 11:25:51;;;;;;;5.88;1.30;;;10.80;99.90;;;;;;5081321;28;20031;-68
2023/05/02 11:28:35;;;;;;;6.28;1.40;;;10.90;99.90;;;;;;5086924;28;20049;-68
2023/05/02 11:31:01;;;;;;;4.88;1.58;;;10.90;99.90;;;;;;5097089;28;20423;-68
2023/05/02 11:33:30;;;;;;;3.92;1.33;;;10.90;99.90;;;;;;5112010;28;20039;-68
2023/05/02 11:35:57;;;;;;;5.25;1.40;;;10.90;99.90;;;;;;5110558;28;20483;-68
2023/05/02 11:38:23;;;;;;;7.10;1.52;;;10.90;99.90;;;;;;5094872;28;20039;-68
2023/05/02 11:40:50;;;;;;;6.63;2.67;;;10.90;99.90;;;;;;5076932;28;20046;-68
2023/05/02 11:43:18;;;;;;;6.18;1.40;;;10.90;99.90;;;;;;5090487;28;20040;-68
2023/05/02 11:45:44;;;;;;;5.72;1.40;;;11.00;99.90;;;;;;5095434;28;20597;-68
2023/05/02 11:48:12;;;;;;;6.38;1.48;;;11.00;99.90;;;;;;5097645;28;20040;-68
2023/05/02 11:50:46;;;;;;;6.57;1.90;;;11.00;99.90;;;;;;5081078;28;20514;-68
2023/05/02 11:53:15;;;;;;;6.10;1.50;;;11.10;99.90;;;;;;5095184;28;20053;-68
2023/05/02 11:55:49;;;;;;;6.85;2.00;;;11.20;99.90;;;;;;5111419;28;20036;-68
2023/05/02 11:58:17;;;;;;;4.57;1.48;;;11.20;99.90;;;;;;5108149;28;20130;-68
2023/05/02 12:00:47;;;;;;;6.30;1.58;;;11.20;99.90;;;;;;5103125;28;20043;-68
2023/05/02 12:03:42;;;;;;;5.68;1.20;;;11.20;99.90;;;;;;5088429;28;20028;-68
2023/05/02 12:06:14;;;;;;;6.72;1.60;;;11.10;99.90;;;;;;5097479;28;20051;-68
2023/05/02 12:08:41;;;;;;;6.32;1.48;;;11.10;99.90;;;;;;5087897;28;20035;-68
2023/05/02 12:11:08;;;;;;;4.55;1.15;;;11.00;99.90;;;;;;5087016;28;20046;-68
2023/05/02 12:13:33;;;;;;;5.05;1.30;;;11.00;99.90;;;;;;5097737;28;20039;-68
2023/05/02 12:16:00;;;;;;;4.50;1.40;;;11.00;99.90;;;;;;5100639;28;20031;-69
2023/05/02 12:18:26;;;;;;;6.30;1.40;;;11.00;99.90;;;;;;5073679;28;20085;-68
2023/05/02 12:20:53;;;;;;;4.03;1.10;;;11.00;99.90;;;;;;5093968;28;20028;-68
2023/05/02 12:23:21;;;;;;;5.20;1.30;;;10.90;99.90;;;;;;5110701;28;20365;-68
2023/05/02 12:25:48;;;;;;;3.85;1.27;;;11.00;99.90;;;;;;5095799;28;20050;-68
2023/05/02 12:28:15;;;;;;;4.53;1.27;;;11.20;99.90;;;;;;5090753;28;20135;-68
2023/05/02 12:30:41;;;;;;;4.90;1.20;;;11.30;99.90;;;;;;5104769;28;20031;-68
2023/05/02 12:33:07;;;;;;;6.60;1.40;;;11.30;99.90;;;;;;5097967;28;20044;-68
2023/05/02 12:35:33;;;;;;;4.38;1.20;;;11.30;99.90;;;;;;5103244;27;20437;-68
2023/05/02 12:38:14;;;;;;;6.20;1.30;;;11.30;99.90;;;;;;5088547;28;20100;-69
2023/05/02 12:40:51;;;;;;;7.22;1.55;;;11.30;99.90;;;;;;5087205;28;20036;-69
2023/05/02 12:43:18;;;;;;;2.25;0.82;;;11.20;99.90;;;;;;5106240;28;20492;-69
2023/05/02 12:45:43;;;;;;;4.38;1.00;;;11.00;99.90;;;;;;5094030;28;20093;-69
2023/05/02 12:48:25;;;;;;;5.43;0.98;;;11.00;99.90;;;;;;5091363;28;20040;-69
2023/05/02 12:50:51;;;;;;;4.10;0.88;;;11.00;99.90;;;;;;5101402;28;20046;-69
2023/05/02 12:53:36;;;;;;;3.33;0.90;;;11.00;99.90;;;;;;5113925;28;20039;-69
2023/05/02 12:56:02;;;;;;;4.25;0.88;;;11.10;99.90;;;;;;5101184;28;20052;-69